createdAt,value
2023-03-27T06:56:37.576Z,100.00
2023-03-27T06:59:04.261Z,100.00
2023-03-27T07:01:30.947Z,100.00
2023-03-27T07:03:58.818Z,100.00
2023-03-27T07:06:25.532Z,100.00
2023-03-27T07:08:52.274Z,100.00
2023-03-27T07:11:19.287Z,100.00
2023-03-27T07:13:49.159Z,100.00
2023-03-27T07:16:15.838Z,95.17
2023-03-27T07:18:42.527Z,88.86
2023-03-27T07:21:09.656Z,84.06
2023-03-27T07:23:36.386Z,79.72
2023-03-27T07:26:03.687Z,79.15
2023-03-27T07:28:31.148Z,75.95
2023-03-27T07:30:57.922Z,74.65
2023-03-27T07:33:25.003Z,71.24
2023-03-27T07:35:51.805Z,73.75
2023-03-27T07:38:18.888Z,69.79
2023-03-27T07:40:50.127Z,68.29
2023-03-27T07:43:16.815Z,65.17
2023-03-27T07:45:45.217Z,77.47
2023-03-27T07:48:16.259Z,66.37
2023-03-27T07:50:43.603Z,68.50
2023-03-27T07:53:32.383Z,71.28
2023-03-27T07:56:03.958Z,73.87
2023-03-27T07:58:30.732Z,72.60
2023-03-27T08:01:02.809Z,70.03
2023-03-27T08:03:31.124Z,63.50
2023-03-27T08:06:00.027Z,62.65
2023-03-27T08:08:28.011Z,75.02
2023-03-27T08:10:57.005Z,62.37
2023-03-27T08:13:24.032Z,61.28
2023-03-27T08:15:50.705Z,63.60
2023-03-27T08:18:18.697Z,69.65
2023-03-27T08:20:45.779Z,58.08
2023-03-27T08:23:12.374Z,56.72
2023-03-27T08:25:39.033Z,67.20
2023-03-27T08:28:06.234Z,69.65
2023-03-27T08:30:33.093Z,67.41
2023-03-27T08:33:00.447Z,64.74
2023-03-27T08:35:27.294Z,64.15
2023-03-27T08:37:54.113Z,58.74
2023-03-27T08:40:28.268Z,59.93
2023-03-27T08:43:01.950Z,59.27
2023-03-27T08:45:40.610Z,55.35
2023-03-27T08:48:15.027Z,66.70
2023-03-27T08:50:46.666Z,51.47
2023-03-27T08:53:50.810Z,45.31
2023-03-27T08:56:18.697Z,58.09
2023-03-27T08:58:46.102Z,57.23
2023-03-27T09:01:49.963Z,47.86
2023-03-27T09:04:38.705Z,54.29
2023-03-27T09:07:27.515Z,57.73
2023-03-27T09:10:15.402Z,52.86
2023-03-27T09:12:54.528Z,53.30
2023-03-27T09:15:45.044Z,59.55
2023-03-27T09:18:19.317Z,57.57
2023-03-27T09:21:00.787Z,52.42
2023-03-27T09:23:36.119Z,49.63
2023-03-27T09:26:12.682Z,48.74
2023-03-27T09:28:56.159Z,57.25
2023-03-27T09:31:22.716Z,55.35
2023-03-27T09:33:49.417Z,55.29
2023-03-27T09:36:16.086Z,63.70
2023-03-27T09:38:50.580Z,56.81
2023-03-27T09:41:34.285Z,48.28
2023-03-27T09:44:25.470Z,47.10
2023-03-27T09:46:58.922Z,48.13
2023-03-27T09:49:26.992Z,47.39
2023-03-27T09:51:55.146Z,49.48
2023-03-27T09:54:23.284Z,48.74
2023-03-27T09:57:11.534Z,47.77
2023-03-27T09:59:51.475Z,52.90
2023-03-27T10:02:27.084Z,43.73
2023-03-27T10:05:19.216Z,44.55
2023-03-27T10:07:46.337Z,45.30
2023-03-27T10:10:17.556Z,45.88
2023-03-27T10:12:50.804Z,42.39
2023-03-27T10:15:38.715Z,45.21
2023-03-27T10:18:29.714Z,41.32
2023-03-27T10:21:07.019Z,44.49
2023-03-27T10:23:45.317Z,39.86
2023-03-27T10:26:17.425Z,38.36
2023-03-27T10:28:49.113Z,40.83
2023-03-27T10:31:31.205Z,32.88
2023-03-27T10:34:08.235Z,39.42
2023-03-27T10:36:37.711Z,41.59
2023-03-27T10:39:11.813Z,32.09
2023-03-27T10:41:39.688Z,37.29
2023-03-27T10:44:19.545Z,37.80
2023-03-27T10:46:47.933Z,33.45
2023-03-27T10:49:25.636Z,40.44
2023-03-27T10:52:34.739Z,33.97
2023-03-27T10:55:01.366Z,39.05
2023-03-27T10:57:32.859Z,37.83
2023-03-27T11:00:18.671Z,35.76
2023-03-27T11:03:11.241Z,36.80
2023-03-27T11:05:43.375Z,37.22
2023-03-27T11:08:21.769Z,32.57
2023-03-27T11:10:49.560Z,36.16
2023-03-27T11:13:23.295Z,38.21
2023-03-27T11:16:01.466Z,35.21
2023-03-27T11:18:34.613Z,33.79
2023-03-27T11:21:12.798Z,32.78
2023-03-27T11:23:48.227Z,36.00
2023-03-27T11:26:16.517Z,32.34
2023-03-27T11:28:49.672Z,31.40
2023-03-27T11:31:40.922Z,33.74
2023-03-27T11:34:28.445Z,32.28
2023-03-27T11:37:04.968Z,32.27
2023-03-27T11:39:56.982Z,31.38
2023-03-27T11:42:31.138Z,28.46
2023-03-27T11:44:58.811Z,28.01
2023-03-27T11:47:31.079Z,25.39
2023-03-27T11:50:17.257Z,21.45
2023-03-27T11:52:55.694Z,21.28
2023-03-27T11:55:22.545Z,23.32
2023-03-27T11:58:16.880Z,23.01
2023-03-27T12:01:07.188Z,22.96
2023-03-27T12:03:55.750Z,20.42
2023-03-27T12:06:34.579Z,26.95
2023-03-27T12:09:15.985Z,19.65
2023-03-27T12:11:51.447Z,22.81
2023-03-27T12:14:40.473Z,25.22
2023-03-27T12:17:41.841Z,26.19
2023-03-27T12:20:33.368Z,24.58
2023-03-27T12:23:02.919Z,29.47
2023-03-27T12:25:41.391Z,21.98
2023-03-27T12:28:32.786Z,24.85
2023-03-27T12:31:16.959Z,20.72
2023-03-27T12:33:55.711Z,21.46
2023-03-27T12:36:24.719Z,27.19
2023-03-27T12:38:54.233Z,25.33
2023-03-27T12:41:25.062Z,24.81
2023-03-27T12:44:00.424Z,20.04
2023-03-27T12:46:28.369Z,23.17
2023-03-27T12:49:10.719Z,20.77
2023-03-27T12:51:44.582Z,20.06
2023-03-27T12:54:27.856Z,18.75
2023-03-27T12:57:15.866Z,19.14
2023-03-27T12:59:48.762Z,18.90
2023-03-27T13:02:16.025Z,17.93
2023-03-27T13:05:10.713Z,20.77
2023-03-27T13:08:07.350Z,18.96
2023-03-27T13:10:50.569Z,24.10
2023-03-27T13:13:47.417Z,19.22
2023-03-27T13:16:34.004Z,19.34
2023-03-27T13:19:22.992Z,20.55
2023-03-27T13:22:16.215Z,20.51
2023-03-27T13:25:08.724Z,18.30
2023-03-27T13:27:52.332Z,21.54
2023-03-27T13:30:42.487Z,24.46
2023-03-27T13:33:24.537Z,27.68
2023-03-27T13:36:12.490Z,28.96
2023-03-27T13:38:51.950Z,27.89
2023-03-27T13:41:43.353Z,28.39
2023-03-27T13:44:16.479Z,30.39
2023-03-27T13:46:50.359Z,28.42
2023-03-27T13:49:49.030Z,28.18
2023-03-27T13:52:40.723Z,28.03
2023-03-27T13:55:19.385Z,28.26
2023-03-27T13:58:02.855Z,29.28
2023-03-27T14:01:02.372Z,29.91
2023-03-27T14:03:31.873Z,31.16
2023-03-27T14:06:40.669Z,29.60
2023-03-27T14:09:10.825Z,30.21
2023-03-27T14:11:49.689Z,31.36
2023-03-27T14:14:23.050Z,30.24
2023-03-27T14:16:59.610Z,29.87
2023-03-27T14:20:01.302Z,26.55
2023-03-27T14:22:48.304Z,26.21
2023-03-27T14:25:19.833Z,26.58
2023-03-27T14:27:51.180Z,27.84
2023-03-27T14:30:20.830Z,28.92
2023-03-27T14:32:49.100Z,28.61
2023-03-27T14:35:27.583Z,27.95
2023-03-27T14:38:00.299Z,27.72
2023-03-27T14:40:35.265Z,30.07
2023-03-27T14:43:05.345Z,28.88
2023-03-27T14:45:35.683Z,31.35
2023-03-27T14:48:25.813Z,30.07
2023-03-27T14:50:55.118Z,30.41
2023-03-27T14:53:27.775Z,31.42
2023-03-27T14:55:56.390Z,32.44
2023-03-27T14:58:24.887Z,33.93
2023-03-27T15:00:58.066Z,32.79
2023-03-27T15:03:30.218Z,33.35
2023-03-27T15:06:21.070Z,31.41
2023-03-27T15:08:52.383Z,30.29
2023-03-27T15:11:25.821Z,31.36
2023-03-27T15:13:53.311Z,31.57
2023-03-27T15:16:25.931Z,30.56
2023-03-27T15:18:58.688Z,31.66
2023-03-27T15:22:16.806Z,33.32
2023-03-27T15:24:50.916Z,34.06
2023-03-27T15:27:27.665Z,33.35
2023-03-27T15:30:15.428Z,33.81
2023-03-27T15:32:50.636Z,31.76
2023-03-27T15:35:21.556Z,33.16
2023-03-27T15:37:48.541Z,33.17
2023-03-27T15:40:26.670Z,32.78
2023-03-27T15:42:54.569Z,32.04
2023-03-27T15:45:24.014Z,31.90
2023-03-27T15:48:06.970Z,31.94
2023-03-27T15:50:34.063Z,29.83
2023-03-27T15:53:01.885Z,32.03
2023-03-27T15:55:37.657Z,30.11
2023-03-27T15:58:13.709Z,28.78
2023-03-27T16:00:49.025Z,29.60
2023-03-27T16:03:21.765Z,29.29
2023-03-27T16:05:51.442Z,28.45
2023-03-27T16:08:48.965Z,27.90
2023-03-27T16:11:38.492Z,28.47
2023-03-27T16:14:05.284Z,28.91
2023-03-27T16:16:36.865Z,30.36
2023-03-27T16:19:11.357Z,30.11
2023-03-27T16:21:37.944Z,30.79
2023-03-27T16:24:04.740Z,30.63
2023-03-27T16:26:32.361Z,29.32
2023-03-27T16:29:03.327Z,28.29
2023-03-27T16:31:30.018Z,29.17
2023-03-27T16:33:58.323Z,27.17
2023-03-27T16:36:30.995Z,29.39
2023-03-27T16:38:57.726Z,31.30
2023-03-27T16:41:24.537Z,31.67
2023-03-27T16:43:51.185Z,30.55
2023-03-27T16:46:26.685Z,31.33
2023-03-27T16:48:54.690Z,32.15
2023-03-27T16:51:23.468Z,31.29
2023-03-27T16:53:50.117Z,31.67
2023-03-27T16:56:18.179Z,32.82
2023-03-27T16:58:44.977Z,33.08
2023-03-27T17:01:12.909Z,33.20
2023-03-27T17:03:43.271Z,33.00
2023-03-27T17:06:12.687Z,30.69
2023-03-27T17:08:42.299Z,32.56
2023-03-27T17:11:11.315Z,31.49
2023-03-27T17:13:41.562Z,32.45
2023-03-27T17:16:09.668Z,32.24
2023-03-27T17:18:36.532Z,30.34
2023-03-27T17:21:03.156Z,29.67
2023-03-27T17:23:29.965Z,26.15
2023-03-27T17:26:00.962Z,29.34
2023-03-27T17:28:28.317Z,27.06
2023-03-27T17:31:04.661Z,29.37
2023-03-27T17:33:32.978Z,22.59
2023-03-27T17:36:00.137Z,24.82
2023-03-27T17:38:27.549Z,21.20
2023-03-27T17:40:54.178Z,23.84
2023-03-27T17:43:21.294Z,25.35
2023-03-27T17:45:49.135Z,28.09
2023-03-27T17:48:15.949Z,29.32
2023-03-27T17:50:45.223Z,27.61
2023-03-27T17:53:16.225Z,28.34
2023-03-27T17:55:43.395Z,29.21
2023-03-27T17:58:10.265Z,30.80
2023-03-27T18:00:39.294Z,29.74
2023-03-27T18:03:06.706Z,30.11
2023-03-27T18:05:38.091Z,23.12
2023-03-27T18:08:06.687Z,21.79
2023-03-27T18:10:35.442Z,24.79
2023-03-27T18:13:02.652Z,23.29
2023-03-27T18:15:30.055Z,24.82
2023-03-27T18:17:56.625Z,27.62
2023-03-27T18:20:23.369Z,28.26
2023-03-27T18:22:50.418Z,26.77
2023-03-27T18:25:17.175Z,27.16
2023-03-27T18:27:44.965Z,26.67
2023-03-27T18:30:14.557Z,26.50
2023-03-27T18:32:42.735Z,24.31
2023-03-27T18:35:15.796Z,24.33
2023-03-27T18:37:43.857Z,27.75
2023-03-27T18:40:13.537Z,25.99
2023-03-27T18:42:41.014Z,24.47
2023-03-27T18:45:08.817Z,23.06
2023-03-27T18:47:36.598Z,23.32
2023-03-27T18:50:07.220Z,26.09
2023-03-27T18:52:33.895Z,23.38
2023-03-27T18:55:00.674Z,23.29
2023-03-27T18:57:27.812Z,23.21
2023-03-27T18:59:55.232Z,24.06
2023-03-27T19:02:22.088Z,23.92
2023-03-27T19:04:48.824Z,19.77
2023-03-27T19:07:16.599Z,20.42
2023-03-27T19:09:44.285Z,21.63
2023-03-27T19:12:12.181Z,21.11
2023-03-27T19:14:38.955Z,21.97
2023-03-27T19:17:05.712Z,20.58
2023-03-27T19:19:33.540Z,21.38
2023-03-27T19:22:00.136Z,22.48
2023-03-27T19:24:26.898Z,21.08
2023-03-27T19:26:53.519Z,21.22
2023-03-27T19:29:20.259Z,21.06
2023-03-27T19:31:46.913Z,20.00
2023-03-27T19:34:13.672Z,19.09
2023-03-27T19:36:40.804Z,19.05
2023-03-27T19:39:08.206Z,21.70
2023-03-27T19:41:34.898Z,19.82
2023-03-27T19:44:01.636Z,19.38
2023-03-27T19:46:29.365Z,19.26
2023-03-27T19:48:56.193Z,20.20
2023-03-27T19:51:22.929Z,20.20
2023-03-27T19:53:49.649Z,18.84
2023-03-27T19:56:16.280Z,20.97
2023-03-27T19:58:42.919Z,22.01
2023-03-27T20:01:10.088Z,21.10
2023-03-27T20:03:38.584Z,20.47
2023-03-27T20:06:11.828Z,21.97
2023-03-27T20:08:40.876Z,21.39
2023-03-27T20:11:07.810Z,23.00
2023-03-27T20:13:49.012Z,20.94
2023-03-27T20:16:24.252Z,20.01
2023-03-27T20:19:04.571Z,20.54
2023-03-27T20:21:37.926Z,19.76
2023-03-27T20:24:05.858Z,19.65
2023-03-27T20:26:39.218Z,19.20
2023-03-27T20:29:12.424Z,19.53
2023-03-27T20:31:40.027Z,20.45
2023-03-27T20:34:07.756Z,18.44
2023-03-27T20:36:35.202Z,20.54
2023-03-27T20:39:04.689Z,20.57
2023-03-27T20:41:31.790Z,20.23
2023-03-27T20:43:59.012Z,19.79
2023-03-27T20:46:30.490Z,19.85
2023-03-27T20:48:57.518Z,20.68
2023-03-27T20:51:24.826Z,20.38
2023-03-27T20:53:55.986Z,20.57
2023-03-27T20:56:24.125Z,20.22
2023-03-27T20:58:51.642Z,20.15
2023-03-27T21:01:27.192Z,20.75
2023-03-27T21:03:58.185Z,19.88
2023-03-27T21:06:25.802Z,20.45
2023-03-27T21:08:52.421Z,20.31
2023-03-27T21:11:19.115Z,21.20
2023-03-27T21:13:45.904Z,21.14
2023-03-27T21:16:12.505Z,20.23
2023-03-27T21:18:39.203Z,20.47
2023-03-27T21:21:06.191Z,20.58
2023-03-27T21:23:34.487Z,20.66
2023-03-27T21:26:01.750Z,19.72
2023-03-27T21:28:28.580Z,20.77
2023-03-27T21:30:55.286Z,20.59
2023-03-27T21:33:22.098Z,19.80
2023-03-27T21:35:49.315Z,19.29
2023-03-27T21:38:17.583Z,19.44
2023-03-27T21:40:46.444Z,19.43
2023-03-27T21:43:13.358Z,19.59
2023-03-27T21:45:39.968Z,19.39
2023-03-27T21:48:06.922Z,20.19
2023-03-27T21:50:33.570Z,19.26
2023-03-27T21:53:00.271Z,19.31
2023-03-27T21:55:26.825Z,19.05
2023-03-27T21:57:53.438Z,19.85
2023-03-27T22:00:20.180Z,19.64
2023-03-27T22:02:46.987Z,20.28
2023-03-27T22:05:13.952Z,20.10
2023-03-27T22:07:40.541Z,19.06
2023-03-27T22:10:07.505Z,19.15
2023-03-27T22:12:35.767Z,19.53
2023-03-27T22:15:02.627Z,20.27
2023-03-27T22:17:29.365Z,19.44
2023-03-27T22:19:56.027Z,19.76
2023-03-27T22:22:22.631Z,19.37
2023-03-27T22:24:49.279Z,20.56
2023-03-27T22:27:16.496Z,20.24
2023-03-27T22:29:43.276Z,19.91
2023-03-27T22:32:09.868Z,19.71
2023-03-27T22:34:36.556Z,19.89
2023-03-27T22:37:03.351Z,20.09
2023-03-27T22:39:29.953Z,19.18
2023-03-27T22:41:56.580Z,19.66
2023-03-27T22:44:23.196Z,20.17
2023-03-27T22:46:51.372Z,19.78
2023-03-27T22:49:18.109Z,20.60
2023-03-27T22:51:44.752Z,20.00
2023-03-27T22:54:11.351Z,20.34
2023-03-27T22:56:37.948Z,20.17
2023-03-27T22:59:04.556Z,19.38
2023-03-27T23:01:31.293Z,20.91
2023-03-27T23:03:58.120Z,21.07
2023-03-27T23:06:26.289Z,21.05
2023-03-27T23:08:53.424Z,21.67
2023-03-27T23:11:20.654Z,21.98
2023-03-27T23:13:47.355Z,22.70
2023-03-27T23:16:14.406Z,20.53
2023-03-27T23:18:41.193Z,20.79
2023-03-27T23:21:13.073Z,23.64
2023-03-27T23:23:40.524Z,23.41
2023-03-27T23:26:08.555Z,23.17
2023-03-27T23:28:38.514Z,21.72
2023-03-27T23:31:07.828Z,20.75
2023-03-27T23:33:39.878Z,19.80
2023-03-27T23:36:09.895Z,20.74
2023-03-27T23:38:37.527Z,21.43
2023-03-27T23:41:06.216Z,21.35
2023-03-27T23:43:33.163Z,21.25
2023-03-27T23:45:59.960Z,24.00
2023-03-27T23:48:28.806Z,25.08
2023-03-27T23:50:57.014Z,27.48
2023-03-27T23:53:28.724Z,27.09
2023-03-27T23:55:57.323Z,26.67
2023-03-27T23:58:28.550Z,26.83
